createdAt,value
2023-01-29T00:04:32.654Z,-0.30
2023-01-29T00:09:36.270Z,-0.38
2023-01-29T00:14:41.812Z,-0.40
2023-01-29T00:19:45.013Z,-0.40
2023-01-29T00:24:48.122Z,-0.40
2023-01-29T00:30:09.451Z,-0.40
2023-01-29T00:35:12.680Z,-0.28
2023-01-29T00:40:16.793Z,-0.20
2023-01-29T00:45:20.233Z,-0.30
2023-01-29T00:50:23.416Z,-0.30
2023-01-29T00:55:26.725Z,-0.32
2023-01-29T01:00:29.879Z,-0.26
2023-01-29T01:05:33.249Z,-0.30
2023-01-29T01:10:36.352Z,-0.30
2023-01-29T01:15:41.012Z,-0.28
2023-01-29T01:20:44.124Z,-0.20
2023-01-29T01:25:47.312Z,-0.20
2023-01-29T01:30:50.499Z,-0.30
2023-01-29T01:35:53.734Z,-0.30
2023-01-29T01:40:56.837Z,-0.30
2023-01-29T01:46:00.153Z,-0.30
2023-01-29T01:51:06.734Z,-0.30
2023-01-29T01:56:15.876Z,-0.30
2023-01-29T02:01:27.109Z,-0.30
2023-01-29T02:06:51.275Z,-0.28
2023-01-29T02:11:54.380Z,-0.20
2023-01-29T02:17:00.329Z,-0.20
2023-01-29T02:22:38.711Z,-0.24
2023-01-29T02:28:25.210Z,-0.28
2023-01-29T02:33:41.331Z,-0.20
2023-01-29T02:39:15.357Z,-0.20
2023-01-29T02:45:16.525Z,-0.20
2023-01-29T02:50:42.767Z,-0.20
2023-01-29T02:56:15.780Z,-0.20
2023-01-29T03:01:38.336Z,-0.20
2023-01-29T03:06:51.392Z,-0.12
2023-01-29T03:12:19.991Z,-0.20
2023-01-29T03:17:33.536Z,-0.22
2023-01-29T03:22:39.932Z,-0.20
2023-01-29T03:28:23.580Z,-0.20
2023-01-29T03:33:32.843Z,-0.20
2023-01-29T03:38:36.457Z,-0.20
2023-01-29T03:43:55.423Z,-0.20
2023-01-29T03:49:01.609Z,-0.20
2023-01-29T03:54:29.490Z,-0.22
2023-01-29T04:00:26.657Z,-0.20
2023-01-29T04:05:44.112Z,-0.10
2023-01-29T04:10:52.236Z,-0.14
2023-01-29T04:16:02.074Z,-0.20
2023-01-29T04:21:07.507Z,-0.20
2023-01-29T04:26:28.594Z,-0.10
2023-01-29T04:31:45.322Z,-0.14
2023-01-29T04:37:16.984Z,-0.26
2023-01-29T04:42:31.373Z,-0.20
2023-01-29T04:48:17.567Z,-0.10
2023-01-29T04:53:59.400Z,-0.10
2023-01-29T04:59:09.516Z,-0.20
2023-01-29T05:04:18.561Z,-0.18
2023-01-29T05:09:22.935Z,-0.10
2023-01-29T05:14:30.624Z,-0.12
2023-01-29T05:19:33.883Z,-0.10
2023-01-29T05:24:37.893Z,0.00
2023-01-29T05:29:46.962Z,0.00
2023-01-29T05:34:50.054Z,-0.10
2023-01-29T05:39:53.146Z,-0.10
2023-01-29T05:44:56.283Z,-0.04
2023-01-29T05:49:59.561Z,0.00
2023-01-29T05:55:02.701Z,0.00
2023-01-29T06:00:07.601Z,0.00
2023-01-29T06:05:10.924Z,-0.10
2023-01-29T06:10:18.060Z,0.00
2023-01-29T06:15:21.646Z,0.02
2023-01-29T06:20:25.670Z,0.10
2023-01-29T06:25:28.883Z,0.08
2023-01-29T06:30:32.057Z,0.00
2023-01-29T06:35:35.297Z,0.00
2023-01-29T06:40:39.433Z,0.10
2023-01-29T06:45:52.150Z,0.10
2023-01-29T06:50:55.571Z,0.04
2023-01-29T06:55:58.787Z,0.10
2023-01-29T07:01:15.505Z,0.20
2023-01-29T07:06:30.098Z,0.10
2023-01-29T07:11:37.905Z,0.10
2023-01-29T07:16:41.135Z,0.20
2023-01-29T07:21:44.420Z,0.20
2023-01-29T07:26:47.833Z,0.20
2023-01-29T07:31:51.043Z,0.10
2023-01-29T07:36:54.766Z,0.16
2023-01-29T07:41:58.585Z,0.30
2023-01-29T07:47:01.698Z,0.30
2023-01-29T07:52:05.205Z,0.40
2023-01-29T07:57:08.517Z,0.50
2023-01-29T08:02:12.782Z,0.60
2023-01-29T08:07:16.011Z,0.60
2023-01-29T08:12:19.166Z,0.60
2023-01-29T08:17:22.598Z,0.80
2023-01-29T08:22:25.797Z,0.76
2023-01-29T08:27:29.025Z,0.70
2023-01-29T08:32:32.531Z,0.88
2023-01-29T08:37:35.835Z,0.92
2023-01-29T08:42:39.136Z,0.94
2023-01-29T08:47:47.734Z,0.90
2023-01-29T08:52:50.801Z,1.00
2023-01-29T08:57:54.813Z,1.06
2023-01-29T09:02:59.871Z,1.10
2023-01-29T09:08:03.691Z,1.10
2023-01-29T09:13:06.903Z,1.20
2023-01-29T09:18:10.043Z,1.30
2023-01-29T09:23:13.416Z,1.28
2023-01-29T09:28:18.017Z,1.20
2023-01-29T09:33:21.888Z,1.20
2023-01-29T09:38:24.987Z,1.12
2023-01-29T09:44:01.687Z,1.12
2023-01-29T09:49:27.182Z,1.20
2023-01-29T09:54:43.007Z,1.26
2023-01-29T09:59:46.127Z,1.30
2023-01-29T10:04:58.333Z,1.38
2023-01-29T10:10:45.290Z,1.60
2023-01-29T10:16:23.507Z,1.60
2023-01-29T10:21:38.910Z,1.70
2023-01-29T10:26:42.175Z,1.70
2023-01-29T10:31:52.402Z,1.60
2023-01-29T10:36:57.367Z,1.60
2023-01-29T10:42:49.272Z,1.60
2023-01-29T10:48:23.824Z,1.58
2023-01-29T10:54:44.341Z,1.54
2023-01-29T11:00:07.623Z,1.60
2023-01-29T11:05:36.633Z,1.60
2023-01-29T11:10:49.576Z,1.54
2023-01-29T11:15:54.035Z,1.50
2023-01-29T11:21:04.782Z,1.60
2023-01-29T11:26:14.308Z,1.64
2023-01-29T11:31:29.223Z,1.60
2023-01-29T11:36:35.334Z,1.60
2023-01-29T11:42:04.211Z,1.70
2023-01-29T11:47:16.254Z,1.74
2023-01-29T11:52:25.149Z,1.70
2023-01-29T11:57:39.169Z,1.82
2023-01-29T12:03:06.820Z,1.80
2023-01-29T12:08:19.155Z,1.80
2023-01-29T12:13:28.688Z,1.72
2023-01-29T12:18:59.359Z,1.80
2023-01-29T12:24:27.960Z,1.70
2023-01-29T12:30:19.951Z,1.70
2023-01-29T12:35:32.231Z,1.70
2023-01-29T12:40:47.259Z,1.76
2023-01-29T12:45:55.656Z,1.80
2023-01-29T12:51:09.818Z,1.80
2023-01-29T12:56:27.060Z,1.74
2023-01-29T13:01:39.475Z,1.70
2023-01-29T13:06:51.598Z,1.72
2023-01-29T13:12:04.106Z,1.78
2023-01-29T13:17:24.333Z,1.80
2023-01-29T13:22:35.354Z,1.80
2023-01-29T13:27:39.704Z,1.80
2023-01-29T13:32:50.750Z,1.80
2023-01-29T13:37:55.703Z,1.84
2023-01-29T13:43:00.427Z,1.72
2023-01-29T13:48:38.260Z,1.70
2023-01-29T13:53:43.420Z,1.70
2023-01-29T13:58:46.429Z,1.70
2023-01-29T14:04:08.098Z,1.68
2023-01-29T14:09:53.885Z,1.60
2023-01-29T14:14:57.021Z,1.60
2023-01-29T14:20:20.028Z,1.68
2023-01-29T14:25:32.104Z,1.60
2023-01-29T14:30:36.621Z,1.60
2023-01-29T14:35:50.574Z,1.50
2023-01-29T14:41:25.411Z,1.50
2023-01-29T14:46:34.466Z,1.50
2023-01-29T14:51:44.187Z,1.50
2023-01-29T14:57:00.148Z,1.50
2023-01-29T15:02:40.247Z,1.50
2023-01-29T15:07:55.293Z,1.50
2023-01-29T15:13:36.117Z,1.50
2023-01-29T15:18:44.195Z,1.50
2023-01-29T15:23:49.372Z,1.50
2023-01-29T15:29:04.152Z,1.46
2023-01-29T15:34:08.285Z,1.50
2023-01-29T15:39:25.059Z,1.50
2023-01-29T15:44:28.306Z,1.50
2023-01-29T15:49:36.497Z,1.56
2023-01-29T15:54:39.947Z,1.50
2023-01-29T15:59:45.927Z,1.50
2023-01-29T16:04:49.259Z,1.50
2023-01-29T16:09:54.113Z,1.50
2023-01-29T16:14:58.007Z,1.50
2023-01-29T16:20:08.387Z,1.50
2023-01-29T16:25:16.104Z,1.50
2023-01-29T16:30:20.218Z,1.50
2023-01-29T16:35:23.361Z,1.50
2023-01-29T16:40:33.394Z,1.50
2023-01-29T16:45:36.622Z,1.50
2023-01-29T16:50:53.985Z,1.50
2023-01-29T16:56:05.956Z,1.54
2023-01-29T17:01:11.660Z,1.52
2023-01-29T17:06:26.343Z,1.50
2023-01-29T17:11:41.815Z,1.58
2023-01-29T17:17:34.574Z,1.54
2023-01-29T17:22:37.785Z,1.50
2023-01-29T17:27:44.081Z,1.50
2023-01-29T17:32:47.667Z,1.50
2023-01-29T17:37:51.099Z,1.50
2023-01-29T17:42:54.099Z,1.50
2023-01-29T17:47:57.312Z,1.48
2023-01-29T17:53:00.407Z,1.40
2023-01-29T17:58:03.729Z,1.40
2023-01-29T18:03:06.935Z,1.44
2023-01-29T18:08:19.288Z,1.40
2023-01-29T18:13:22.572Z,1.44
2023-01-29T18:18:25.708Z,1.40
2023-01-29T18:23:31.746Z,1.40
2023-01-29T18:28:35.154Z,1.40
2023-01-29T18:33:38.268Z,1.40
2023-01-29T18:38:41.504Z,1.44
2023-01-29T18:43:44.790Z,1.50
2023-01-29T18:48:48.117Z,1.50
2023-01-29T18:53:53.259Z,1.50
2023-01-29T18:58:56.690Z,1.48
2023-01-29T19:04:00.609Z,1.40
2023-01-29T19:09:04.622Z,1.40
2023-01-29T19:14:07.720Z,1.44
2023-01-29T19:19:11.548Z,1.40
2023-01-29T19:24:15.589Z,1.44
2023-01-29T19:29:20.347Z,1.44
2023-01-29T19:34:24.154Z,1.44
2023-01-29T19:39:32.678Z,1.48
2023-01-29T19:44:35.889Z,1.50
2023-01-29T19:49:40.866Z,1.50
2023-01-29T19:54:46.573Z,1.50
2023-01-29T19:59:49.812Z,1.50
2023-01-29T20:04:53.222Z,1.50
2023-01-29T20:09:56.533Z,1.50
2023-01-29T20:14:59.740Z,1.50
2023-01-29T20:20:05.917Z,1.50
2023-01-29T20:25:09.966Z,1.50
2023-01-29T20:30:14.043Z,1.50
2023-01-29T20:35:17.418Z,1.50
2023-01-29T20:40:20.605Z,1.50
2023-01-29T20:45:23.909Z,1.50
2023-01-29T20:50:27.428Z,1.40
2023-01-29T20:55:31.976Z,1.50
2023-01-29T21:00:35.645Z,1.50
2023-01-29T21:05:39.011Z,1.50
2023-01-29T21:10:43.354Z,1.48
2023-01-29T21:15:47.157Z,1.50
2023-01-29T21:20:50.880Z,1.50
2023-01-29T21:25:54.129Z,1.50
2023-01-29T21:31:10.289Z,1.50
2023-01-29T21:36:13.522Z,1.50
2023-01-29T21:41:16.795Z,1.50
2023-01-29T21:46:20.053Z,1.54
2023-01-29T21:51:24.055Z,1.58
2023-01-29T21:56:27.284Z,1.60
2023-01-29T22:01:37.996Z,1.60
2023-01-29T22:06:42.790Z,1.60
2023-01-29T22:11:45.798Z,1.60
2023-01-29T22:16:49.056Z,1.60
2023-01-29T22:21:55.922Z,1.60
2023-01-29T22:26:59.002Z,1.56
2023-01-29T22:32:02.177Z,1.60
2023-01-29T22:37:05.625Z,1.54
2023-01-29T22:42:08.756Z,1.60
2023-01-29T22:47:12.560Z,1.58
2023-01-29T22:52:16.072Z,1.60
2023-01-29T22:57:20.105Z,1.60
2023-01-29T23:02:23.134Z,1.60
2023-01-29T23:07:26.722Z,1.60
2023-01-29T23:12:29.861Z,1.60
2023-01-29T23:17:33.750Z,1.60
2023-01-29T23:22:36.856Z,1.60
2023-01-29T23:27:40.275Z,1.60
2023-01-29T23:32:43.320Z,1.60
2023-01-29T23:37:46.490Z,1.60
2023-01-29T23:42:49.698Z,1.60
2023-01-29T23:47:52.717Z,1.60
2023-01-29T23:52:55.804Z,1.60
2023-01-29T23:57:59.011Z,1.60
